createdAt,value
2023-02-18T00:00:19.475Z,64.88
2023-02-18T00:05:22.124Z,66.63
2023-02-18T00:10:24.509Z,55.35
2023-02-18T00:15:26.624Z,56.22
2023-02-18T00:20:28.711Z,57.35
2023-02-18T00:25:30.887Z,58.58
2023-02-18T00:30:33.097Z,45.67
2023-02-18T00:35:35.624Z,45.95
2023-02-18T00:40:42.285Z,43.20
2023-02-18T00:45:44.433Z,41.92
2023-02-18T00:50:47.173Z,38.97
2023-02-18T00:55:49.393Z,39.33
2023-02-18T01:00:52.153Z,35.95
2023-02-18T01:05:54.529Z,39.88
2023-02-18T01:10:59.465Z,38.05
2023-02-18T01:16:01.826Z,45.33
2023-02-18T01:21:05.652Z,42.70
2023-02-18T01:26:08.910Z,48.42
2023-02-18T01:31:13.719Z,39.53
2023-02-18T01:36:19.493Z,37.35
2023-02-18T01:41:21.939Z,38.97
2023-02-18T01:46:24.141Z,39.42
2023-02-18T01:51:28.804Z,42.83
2023-02-18T01:57:06.255Z,38.25
2023-02-18T02:02:13.413Z,42.08
2023-02-18T02:07:16.376Z,38.78
2023-02-18T02:12:25.608Z,35.80
2023-02-18T02:17:42.684Z,37.83
2023-02-18T02:22:56.236Z,38.17
2023-02-18T02:28:41.255Z,37.55
2023-02-18T02:33:52.289Z,37.13
2023-02-18T02:39:22.004Z,44.97
2023-02-18T02:44:39.043Z,39.63
2023-02-18T02:49:49.378Z,35.65
2023-02-18T03:00:02.803Z,37.40
2023-02-18T03:10:40.155Z,41.65
2023-02-18T03:15:54.178Z,35.00
2023-02-18T03:21:05.017Z,37.20
2023-02-18T03:26:10.047Z,37.10
2023-02-18T03:31:21.582Z,38.70
2023-02-18T03:36:25.036Z,38.38
2023-02-18T03:41:27.705Z,43.65
2023-02-18T03:46:30.950Z,49.95
2023-02-18T03:51:33.189Z,49.38
2023-02-18T03:56:37.217Z,46.22
2023-02-18T04:01:40.321Z,53.47
2023-02-18T04:06:42.473Z,52.05
2023-02-18T04:11:44.639Z,63.63
2023-02-18T04:16:46.756Z,59.90
2023-02-18T04:21:48.891Z,49.15
2023-02-18T04:26:51.070Z,46.55
2023-02-18T04:31:53.311Z,53.97
2023-02-18T04:36:56.531Z,49.08
2023-02-18T04:41:58.675Z,48.58
2023-02-18T04:47:00.779Z,55.10
2023-02-18T04:52:03.202Z,51.78
2023-02-18T04:57:05.463Z,54.17
2023-02-18T05:02:07.760Z,50.22
2023-02-18T05:07:09.912Z,62.15
2023-02-18T05:12:12.107Z,45.60
2023-02-18T05:17:14.296Z,56.75
2023-02-18T05:22:16.488Z,47.60
2023-02-18T05:27:18.663Z,39.03
2023-02-18T05:32:20.869Z,37.85
2023-02-18T05:37:23.046Z,38.33
2023-02-18T05:42:25.309Z,49.25
2023-02-18T05:47:27.552Z,50.42
2023-02-18T05:52:29.776Z,41.17
2023-02-18T05:57:32.901Z,36.60
2023-02-18T06:02:36.334Z,35.45
2023-02-18T06:07:39.001Z,37.45
2023-02-18T06:12:41.143Z,35.65
2023-02-18T06:17:43.289Z,48.70
2023-02-18T06:22:45.455Z,48.47
2023-02-18T06:27:47.572Z,51.00
2023-02-18T06:32:49.790Z,53.85
2023-02-18T06:37:52.458Z,58.67
2023-02-18T06:42:54.806Z,65.38
2023-02-18T06:47:57.450Z,58.70
2023-02-18T06:52:59.943Z,51.45
2023-02-18T06:58:02.075Z,71.53
2023-02-18T07:03:05.038Z,60.20
2023-02-18T07:08:07.232Z,65.22
2023-02-18T07:13:09.453Z,62.13
2023-02-18T07:18:11.857Z,53.53
2023-02-18T07:23:14.323Z,56.83
2023-02-18T07:28:17.084Z,57.65
2023-02-18T07:33:19.266Z,55.45
2023-02-18T07:38:22.399Z,52.75
2023-02-18T07:43:24.996Z,48.45
2023-02-18T07:48:27.600Z,64.38
2023-02-18T07:53:29.829Z,54.50
2023-02-18T07:58:35.260Z,52.22
2023-02-18T08:03:37.840Z,54.78
2023-02-18T08:08:39.951Z,50.08
2023-02-18T08:13:42.126Z,47.38
2023-02-18T08:18:44.614Z,37.65
2023-02-18T08:23:47.722Z,44.08
2023-02-18T08:28:50.019Z,40.30
2023-02-18T08:33:53.709Z,49.17
2023-02-18T08:38:55.984Z,53.78
2023-02-18T08:43:58.243Z,56.38
2023-02-18T08:49:00.477Z,45.60
2023-02-18T08:54:03.301Z,45.40
2023-02-18T08:59:05.713Z,46.85
2023-02-18T09:04:07.819Z,46.10
2023-02-18T09:09:10.655Z,51.42
2023-02-18T09:14:13.324Z,49.35
2023-02-18T09:19:15.702Z,52.70
2023-02-18T09:24:17.987Z,51.63
2023-02-18T09:29:20.238Z,54.47
2023-02-18T09:34:22.426Z,50.55
2023-02-18T09:39:24.969Z,54.22
2023-02-18T09:44:34.729Z,53.17
2023-02-18T09:49:40.750Z,52.13
2023-02-18T09:54:43.135Z,55.50
2023-02-18T09:59:56.880Z,53.15
2023-02-18T10:04:59.410Z,47.33
2023-02-18T10:10:16.791Z,45.63
2023-02-18T10:15:25.512Z,42.83
2023-02-18T10:20:30.897Z,49.90
2023-02-18T10:25:44.683Z,48.88
2023-02-18T10:31:01.328Z,44.20
2023-02-18T10:36:10.926Z,43.40
2023-02-18T10:41:37.488Z,43.30
2023-02-18T10:47:09.528Z,37.80
2023-02-18T10:52:17.678Z,49.72
2023-02-18T10:57:24.453Z,41.05
2023-02-18T11:02:31.879Z,42.65
2023-02-18T11:07:36.083Z,47.03
2023-02-18T11:12:51.256Z,41.20
2023-02-18T11:17:56.277Z,39.17
2023-02-18T11:23:08.747Z,41.45
2023-02-18T11:28:14.873Z,45.80
2023-02-18T11:33:21.649Z,53.00
2023-02-18T11:38:35.231Z,46.55
2023-02-18T11:43:42.207Z,36.75
2023-02-18T11:48:45.077Z,32.92
2023-02-18T11:54:02.360Z,39.00
2023-02-18T11:59:05.016Z,38.53
2023-02-18T12:04:25.777Z,42.53
2023-02-18T12:09:33.828Z,37.65
2023-02-18T12:14:36.746Z,33.45
2023-02-18T12:19:50.607Z,36.42
2023-02-18T12:24:58.641Z,34.25
2023-02-18T12:30:28.808Z,47.92
2023-02-18T12:35:42.752Z,31.98
2023-02-18T12:40:52.611Z,22.52
2023-02-18T12:46:23.846Z,20.50
2023-02-18T12:51:49.673Z,19.73
2023-02-18T12:57:15.123Z,18.50
2023-02-18T13:02:59.631Z,15.52
2023-02-18T13:08:23.147Z,11.23
2023-02-18T13:13:30.388Z,11.80
2023-02-18T13:18:37.054Z,10.57
2023-02-18T13:23:58.809Z,13.38
2023-02-18T13:29:25.096Z,8.20
2023-02-18T13:34:43.307Z,7.25
2023-02-18T13:39:53.751Z,7.45
2023-02-18T13:44:56.076Z,4.38
2023-02-18T13:49:58.394Z,5.47
2023-02-18T13:55:00.582Z,8.48
2023-02-18T14:00:17.827Z,10.75
2023-02-18T14:05:25.416Z,7.50
2023-02-18T14:10:32.778Z,7.72
2023-02-18T14:15:34.986Z,8.88
2023-02-18T14:20:39.961Z,5.90
2023-02-18T14:25:42.835Z,7.53
2023-02-18T14:30:45.744Z,8.57
2023-02-18T14:36:18.211Z,7.50
2023-02-18T14:41:50.139Z,6.97
2023-02-18T14:46:58.657Z,7.10
2023-02-18T14:52:03.594Z,8.73
2023-02-18T14:57:09.944Z,9.45
2023-02-18T15:02:28.141Z,7.70
2023-02-18T15:07:30.338Z,9.07
2023-02-18T15:12:32.923Z,8.90
2023-02-18T15:17:35.304Z,5.82
2023-02-18T15:22:37.797Z,9.38
2023-02-18T15:27:44.865Z,11.30
2023-02-18T15:32:53.282Z,9.82
2023-02-18T15:37:58.544Z,11.33
2023-02-18T15:43:02.987Z,11.55
2023-02-18T15:48:06.398Z,7.60
2023-02-18T15:53:15.641Z,12.10
2023-02-18T15:58:24.252Z,12.85
2023-02-18T16:03:29.666Z,16.87
2023-02-18T16:08:31.978Z,37.17
2023-02-18T16:13:37.947Z,43.00
2023-02-18T16:18:42.358Z,37.08
2023-02-18T16:24:04.460Z,26.83
2023-02-18T16:29:16.321Z,33.55
2023-02-18T16:34:19.391Z,42.25
2023-02-18T16:39:22.739Z,32.25
2023-02-18T16:44:24.969Z,35.83
2023-02-18T16:49:29.093Z,39.10
2023-02-18T16:54:31.380Z,34.08
2023-02-18T16:59:33.988Z,32.40
2023-02-18T17:04:36.287Z,31.38
2023-02-18T17:09:38.655Z,41.15
2023-02-18T17:14:41.208Z,47.65
2023-02-18T17:19:43.721Z,41.92
2023-02-18T17:24:45.852Z,41.88
2023-02-18T17:29:48.088Z,30.60
2023-02-18T17:34:50.238Z,45.38
2023-02-18T17:39:53.005Z,52.72
2023-02-18T17:44:55.319Z,43.05
2023-02-18T17:49:57.413Z,46.85
2023-02-18T17:54:59.678Z,50.88
2023-02-18T18:00:02.154Z,51.83
2023-02-18T18:05:04.692Z,51.00
2023-02-18T18:10:07.544Z,55.20
2023-02-18T18:15:24.127Z,56.13
2023-02-18T18:20:28.468Z,69.05
2023-02-18T18:25:36.363Z,80.90
2023-02-18T18:30:42.093Z,65.30
2023-02-18T18:35:46.435Z,110.85
2023-02-18T18:40:49.369Z,71.28
2023-02-18T18:45:52.447Z,92.20
2023-02-18T18:50:55.345Z,87.32
2023-02-18T18:56:01.810Z,78.35
2023-02-18T19:01:05.795Z,93.50
2023-02-18T19:06:11.973Z,78.60
2023-02-18T19:11:15.210Z,79.38
2023-02-18T19:16:22.622Z,87.18
2023-02-18T19:21:24.962Z,85.03
2023-02-18T19:26:28.063Z,88.22
2023-02-18T19:31:30.421Z,106.40
2023-02-18T19:36:32.587Z,80.90
2023-02-18T19:41:34.794Z,96.97
2023-02-18T19:46:38.662Z,92.55
2023-02-18T19:51:40.930Z,103.95
2023-02-18T19:56:43.216Z,115.97
2023-02-18T20:01:45.421Z,85.03
2023-02-18T20:06:47.676Z,68.22
2023-02-18T20:11:50.246Z,63.95
2023-02-18T20:16:52.592Z,63.28
2023-02-18T20:21:58.724Z,62.13
2023-02-18T20:27:02.855Z,65.60
2023-02-18T20:32:06.508Z,67.20
2023-02-18T20:37:09.049Z,71.78
2023-02-18T20:42:16.734Z,75.55
2023-02-18T20:47:19.504Z,71.07
2023-02-18T20:52:22.100Z,60.15
2023-02-18T20:57:24.719Z,74.20
2023-02-18T21:02:27.553Z,68.82
2023-02-18T21:07:30.039Z,59.47
2023-02-18T21:12:32.512Z,54.85
2023-02-18T21:17:34.851Z,49.28
2023-02-18T21:22:37.334Z,52.63
2023-02-18T21:27:39.643Z,47.72
2023-02-18T21:32:41.922Z,49.55
2023-02-18T21:37:44.610Z,48.63
2023-02-18T21:42:46.944Z,76.30
2023-02-18T21:47:49.704Z,59.08
2023-02-18T21:52:52.194Z,57.10
2023-02-18T21:57:54.313Z,61.28
2023-02-18T22:02:56.504Z,54.38
2023-02-18T22:07:58.845Z,57.85
2023-02-18T22:13:01.118Z,53.08
2023-02-18T22:18:03.443Z,59.38
2023-02-18T22:23:05.701Z,54.45
2023-02-18T22:28:07.985Z,43.65
2023-02-18T22:33:10.136Z,51.58
2023-02-18T22:38:12.359Z,45.63
2023-02-18T22:43:14.598Z,41.72
2023-02-18T22:48:19.003Z,39.40
2023-02-18T22:53:22.234Z,43.88
2023-02-18T22:58:24.622Z,37.72
2023-02-18T23:03:28.327Z,33.17
2023-02-18T23:08:31.387Z,37.33
2023-02-18T23:13:34.173Z,36.42
2023-02-18T23:18:36.849Z,32.08
2023-02-18T23:23:39.356Z,35.30
2023-02-18T23:28:48.251Z,34.33
2023-02-18T23:33:55.059Z,32.45
2023-02-18T23:39:00.451Z,46.40
2023-02-18T23:44:07.376Z,33.97
2023-02-18T23:49:11.804Z,33.15
2023-02-18T23:54:14.019Z,29.70
2023-02-18T23:59:16.898Z,30.20
